createdAt,value
2023-05-11T00:03:20.697Z,11.60
2023-05-11T00:06:44.741Z,11.60
2023-05-11T00:10:06.954Z,11.60
2023-05-11T00:13:28.668Z,11.50
2023-05-11T00:16:50.260Z,11.50
2023-05-11T00:20:11.836Z,11.50
2023-05-11T00:23:34.747Z,11.50
2023-05-11T00:26:56.309Z,11.50
2023-05-11T00:30:18.231Z,11.40
2023-05-11T00:33:39.929Z,11.40
2023-05-11T00:37:01.766Z,11.40
2023-05-11T00:40:24.772Z,11.40
2023-05-11T00:43:46.367Z,11.50
2023-05-11T00:47:08.037Z,11.50
2023-05-11T00:50:29.652Z,11.50
2023-05-11T00:53:51.338Z,11.50
2023-05-11T00:57:14.307Z,11.50
2023-05-11T01:00:36.010Z,11.50
2023-05-11T01:03:57.667Z,11.50
2023-05-11T01:07:20.706Z,11.50
2023-05-11T01:10:44.726Z,11.60
2023-05-11T01:14:11.589Z,11.60
2023-05-11T01:17:45.937Z,11.60
2023-05-11T01:21:08.351Z,11.60
2023-05-11T01:24:37.029Z,11.60
2023-05-11T01:28:09.984Z,11.50
2023-05-11T01:31:34.208Z,11.50
2023-05-11T01:35:00.228Z,11.50
2023-05-11T01:38:22.610Z,11.50
2023-05-11T01:41:45.705Z,11.50
2023-05-11T01:45:08.107Z,11.50
2023-05-11T01:48:33.657Z,11.50
2023-05-11T01:51:55.665Z,11.50
2023-05-11T01:55:19.333Z,11.50
2023-05-11T01:58:41.230Z,11.40
2023-05-11T02:02:03.939Z,11.40
2023-05-11T02:05:29.967Z,11.40
2023-05-11T02:08:52.362Z,11.40
2023-05-11T02:12:14.349Z,11.40
2023-05-11T02:15:37.341Z,11.40
2023-05-11T02:18:59.662Z,11.40
2023-05-11T02:22:22.900Z,11.40
2023-05-11T02:25:44.807Z,11.40
2023-05-11T02:29:06.518Z,11.40
2023-05-11T02:32:28.509Z,11.40
2023-05-11T02:35:51.310Z,11.40
2023-05-11T02:39:15.426Z,11.40
2023-05-11T02:42:39.112Z,11.40
2023-05-11T02:46:02.744Z,11.40
2023-05-11T02:49:25.426Z,11.30
2023-05-11T02:52:48.421Z,11.30
2023-05-11T02:56:11.533Z,11.30
2023-05-11T02:59:33.441Z,11.30
2023-05-11T03:02:55.268Z,11.30
2023-05-11T03:06:16.917Z,11.30
2023-05-11T03:09:38.548Z,11.20
2023-05-11T03:13:01.521Z,11.20
2023-05-11T03:16:23.694Z,11.20
2023-05-11T03:19:45.400Z,11.20
2023-05-11T03:23:07.507Z,11.20
2023-05-11T03:26:31.472Z,11.20
2023-05-11T03:29:55.586Z,11.20
2023-05-11T03:33:17.205Z,11.30
2023-05-11T03:36:39.239Z,11.30
2023-05-11T03:40:01.009Z,11.30
2023-05-11T03:43:22.743Z,11.30
2023-05-11T03:46:45.759Z,11.20
2023-05-11T03:50:08.676Z,11.20
2023-05-11T03:53:30.492Z,11.20
2023-05-11T03:56:52.068Z,11.20
2023-05-11T04:00:13.922Z,11.20
2023-05-11T04:03:46.926Z,11.20
2023-05-11T04:07:08.608Z,11.20
2023-05-11T04:10:30.186Z,11.20
2023-05-11T04:13:51.775Z,11.20
2023-05-11T04:17:13.368Z,11.20
2023-05-11T04:20:36.295Z,11.20
2023-05-11T04:23:57.893Z,11.20
2023-05-11T04:27:19.639Z,11.20
2023-05-11T04:30:41.222Z,11.20
2023-05-11T04:34:02.813Z,11.30
2023-05-11T04:37:25.724Z,11.30
2023-05-11T04:40:47.695Z,11.30
2023-05-11T04:44:09.433Z,11.30
2023-05-11T04:47:31.032Z,11.30
2023-05-11T04:50:53.522Z,11.30
2023-05-11T04:54:16.471Z,11.30
2023-05-11T04:57:38.080Z,11.30
2023-05-11T05:00:59.668Z,11.40
2023-05-11T05:04:21.359Z,11.40
2023-05-11T05:07:42.987Z,11.40
2023-05-11T05:11:06.200Z,11.40
2023-05-11T05:14:27.780Z,11.50
2023-05-11T05:17:49.423Z,11.50
2023-05-11T05:21:10.993Z,11.50
2023-05-11T05:24:32.582Z,11.50
2023-05-11T05:27:55.534Z,11.60
2023-05-11T05:31:17.215Z,11.60
2023-05-11T05:34:38.888Z,11.70
2023-05-11T05:38:00.577Z,11.70
2023-05-11T05:41:22.141Z,11.80
2023-05-11T05:44:45.063Z,11.80
2023-05-11T05:48:06.961Z,11.80
2023-05-11T05:51:28.642Z,11.90
2023-05-11T05:54:50.231Z,11.90
2023-05-11T05:58:11.822Z,11.90
2023-05-11T06:01:35.244Z,12.00
2023-05-11T06:04:57.077Z,12.00
2023-05-11T06:08:18.709Z,12.10
2023-05-11T06:11:40.391Z,12.00
2023-05-11T06:15:02.227Z,12.00
2023-05-11T06:18:25.327Z,12.10
2023-05-11T06:21:46.930Z,12.20
2023-05-11T06:25:08.582Z,12.20
2023-05-11T06:28:30.161Z,12.30
2023-05-11T06:31:51.759Z,12.20
2023-05-11T06:35:14.700Z,12.30
2023-05-11T06:38:36.286Z,12.30
2023-05-11T06:42:01.399Z,12.30
2023-05-11T06:45:24.598Z,12.40
2023-05-11T06:48:46.245Z,12.40
2023-05-11T06:52:09.243Z,12.40
2023-05-11T06:55:30.799Z,12.50
2023-05-11T06:58:52.358Z,12.60
2023-05-11T07:02:13.936Z,12.60
2023-05-11T07:05:35.528Z,12.70
2023-05-11T07:08:58.453Z,12.70
2023-05-11T07:12:20.054Z,12.80
2023-05-11T07:15:41.659Z,12.90
2023-05-11T07:19:03.402Z,12.90
2023-05-11T07:22:25.013Z,12.80
2023-05-11T07:25:47.963Z,12.80
2023-05-11T07:29:20.427Z,12.80
2023-05-11T07:32:43.037Z,12.80
2023-05-11T07:36:04.774Z,12.70
2023-05-11T07:39:27.135Z,12.70
2023-05-11T07:42:50.112Z,12.80
2023-05-11T07:46:11.711Z,12.90
2023-05-11T07:49:43.045Z,12.90
2023-05-11T07:53:06.144Z,12.90
2023-05-11T07:56:27.763Z,12.90
2023-05-11T07:59:51.543Z,12.90
2023-05-11T08:03:13.944Z,12.90
2023-05-11T08:06:35.542Z,12.90
2023-05-11T08:09:57.314Z,13.00
2023-05-11T08:13:18.909Z,13.30
2023-05-11T08:16:41.860Z,13.50
2023-05-11T08:20:03.585Z,13.60
2023-05-11T08:23:25.341Z,13.70
2023-05-11T08:26:47.411Z,13.80
2023-05-11T08:30:11.486Z,13.90
2023-05-11T08:33:38.040Z,14.00
2023-05-11T08:37:00.450Z,14.00
2023-05-11T08:40:23.516Z,14.00
2023-05-11T08:43:45.128Z,13.90
2023-05-11T08:47:21.770Z,13.90
2023-05-11T08:50:46.017Z,13.90
2023-05-11T08:54:07.783Z,13.60
2023-05-11T08:57:30.884Z,13.30
2023-05-11T09:00:52.491Z,13.00
2023-05-11T09:04:14.412Z,12.80
2023-05-11T09:07:38.634Z,12.70
2023-05-11T09:11:00.525Z,12.60
2023-05-11T09:14:27.035Z,12.60
2023-05-11T09:17:49.590Z,12.40
2023-05-11T09:21:12.345Z,12.40
2023-05-11T09:24:35.276Z,12.20
2023-05-11T09:27:57.684Z,12.10
2023-05-11T09:31:35.429Z,11.90
2023-05-11T09:34:57.024Z,11.80
2023-05-11T09:38:18.683Z,11.80
2023-05-11T09:41:41.645Z,11.90
2023-05-11T09:45:03.462Z,11.90
2023-05-11T09:48:26.324Z,11.90
2023-05-11T09:51:47.909Z,11.90
2023-05-11T09:55:10.435Z,12.00
2023-05-11T09:58:45.946Z,12.00
2023-05-11T10:02:17.428Z,12.20
2023-05-11T10:05:39.096Z,12.30
2023-05-11T10:09:08.181Z,12.40
2023-05-11T10:12:30.316Z,12.50
2023-05-11T10:15:54.227Z,12.50
2023-05-11T10:19:16.299Z,12.60
2023-05-11T10:22:38.474Z,12.60
2023-05-11T10:26:00.243Z,12.60
2023-05-11T10:29:22.427Z,12.70
2023-05-11T10:32:45.705Z,12.80
2023-05-11T10:36:08.184Z,12.90
2023-05-11T10:39:29.919Z,13.00
2023-05-11T10:43:03.831Z,13.10
2023-05-11T10:46:35.636Z,13.30
2023-05-11T10:50:05.704Z,13.50
2023-05-11T10:53:36.108Z,13.30
2023-05-11T10:57:08.460Z,13.50
2023-05-11T11:00:58.997Z,13.40
2023-05-11T11:04:20.696Z,13.30
2023-05-11T11:07:59.524Z,13.20
2023-05-11T11:11:31.421Z,13.20
2023-05-11T11:14:53.800Z,13.20
2023-05-11T11:18:21.919Z,13.40
2023-05-11T11:21:43.524Z,13.50
2023-05-11T11:25:07.067Z,13.50
2023-05-11T11:28:48.687Z,13.50
2023-05-11T11:32:26.045Z,13.50
2023-05-11T11:35:47.871Z,13.70
2023-05-11T11:39:09.532Z,13.70
2023-05-11T11:42:37.083Z,13.80
2023-05-11T11:45:59.286Z,14.00
2023-05-11T11:49:26.861Z,14.20
2023-05-11T11:52:48.501Z,14.40
2023-05-11T11:56:35.404Z,14.40
2023-05-11T11:59:58.838Z,14.40
2023-05-11T12:03:22.815Z,14.40
2023-05-11T12:06:45.689Z,14.40
2023-05-11T12:10:07.831Z,14.30
2023-05-11T12:13:29.602Z,14.30
2023-05-11T12:17:02.338Z,14.30
2023-05-11T12:20:24.057Z,14.40
2023-05-11T12:23:51.291Z,14.60
2023-05-11T12:27:12.880Z,14.70
2023-05-11T12:30:34.709Z,14.70
2023-05-11T12:33:57.779Z,14.80
2023-05-11T12:37:20.300Z,14.50
2023-05-11T12:40:46.379Z,14.30
2023-05-11T12:44:08.070Z,14.30
2023-05-11T12:47:29.903Z,14.40
2023-05-11T12:50:52.867Z,14.50
2023-05-11T12:54:27.372Z,14.50
2023-05-11T12:57:49.030Z,14.60
2023-05-11T13:01:10.655Z,14.80
2023-05-11T13:04:32.617Z,14.80
2023-05-11T13:07:58.665Z,14.90
2023-05-11T13:11:20.952Z,14.90
2023-05-11T13:14:42.782Z,14.90
2023-05-11T13:18:04.394Z,15.00
2023-05-11T13:21:26.084Z,14.90
2023-05-11T13:24:49.047Z,14.90
2023-05-11T13:28:10.636Z,15.00
2023-05-11T13:31:32.486Z,14.90
2023-05-11T13:34:54.114Z,14.90
2023-05-11T13:38:15.726Z,15.30
2023-05-11T13:41:40.503Z,15.30
2023-05-11T13:45:02.200Z,15.40
2023-05-11T13:48:23.774Z,15.50
2023-05-11T13:51:45.351Z,15.60
2023-05-11T13:55:07.940Z,15.50
2023-05-11T13:58:31.679Z,15.60
2023-05-11T14:01:53.419Z,15.90
2023-05-11T14:05:15.179Z,16.20
2023-05-11T14:08:36.769Z,16.10
2023-05-11T14:11:58.333Z,16.00
2023-05-11T14:15:23.095Z,16.00
2023-05-11T14:18:45.610Z,16.00
2023-05-11T14:22:07.296Z,15.80
2023-05-11T14:25:29.116Z,15.80
2023-05-11T14:28:56.585Z,15.60
2023-05-11T14:32:19.989Z,15.60
2023-05-11T14:35:41.626Z,15.60
2023-05-11T14:39:03.450Z,15.60
2023-05-11T14:42:25.088Z,15.70
2023-05-11T14:45:46.721Z,15.80
2023-05-11T14:49:09.711Z,15.80
2023-05-11T14:52:31.338Z,15.90
2023-05-11T14:55:52.984Z,16.00
2023-05-11T14:59:14.894Z,16.20
2023-05-11T15:02:36.601Z,16.50
2023-05-11T15:05:59.587Z,16.40
2023-05-11T15:09:21.217Z,16.40
2023-05-11T15:12:42.909Z,16.30
2023-05-11T15:16:04.937Z,16.30
2023-05-11T15:19:26.710Z,16.10
2023-05-11T15:22:50.185Z,16.00
2023-05-11T15:26:11.921Z,16.00
2023-05-11T15:29:33.579Z,15.90
2023-05-11T15:33:01.010Z,15.80
2023-05-11T15:36:24.063Z,15.80
2023-05-11T15:39:48.741Z,15.80
2023-05-11T15:43:10.344Z,15.70
2023-05-11T15:46:33.758Z,15.60
2023-05-11T15:49:55.818Z,15.40
2023-05-11T15:53:17.399Z,15.50
2023-05-11T15:56:49.211Z,15.50
2023-05-11T16:00:12.135Z,15.50
2023-05-11T16:03:34.124Z,15.60
2023-05-11T16:06:58.112Z,15.70
2023-05-11T16:10:20.758Z,15.60
2023-05-11T16:13:43.863Z,15.50
2023-05-11T16:17:05.508Z,15.60
2023-05-11T16:20:27.261Z,15.50
2023-05-11T16:23:48.943Z,15.40
2023-05-11T16:27:10.693Z,15.30
2023-05-11T16:30:33.723Z,15.00
2023-05-11T16:33:55.477Z,14.80
2023-05-11T16:37:17.187Z,14.70
2023-05-11T16:40:38.820Z,14.50
2023-05-11T16:44:00.570Z,14.40
2023-05-11T16:47:23.969Z,14.30
2023-05-11T16:50:46.206Z,14.30
2023-05-11T16:54:08.304Z,14.20
2023-05-11T16:57:29.882Z,14.20
2023-05-11T17:00:51.499Z,14.00
2023-05-11T17:04:14.511Z,14.00
2023-05-11T17:07:36.204Z,14.00
2023-05-11T17:10:57.891Z,13.90
2023-05-11T17:14:19.523Z,13.80
2023-05-11T17:17:41.429Z,13.80
2023-05-11T17:21:04.597Z,13.80
2023-05-11T17:24:29.046Z,13.80
2023-05-11T17:27:50.861Z,13.70
2023-05-11T17:31:13.369Z,13.70
2023-05-11T17:34:35.065Z,13.60
2023-05-11T17:37:57.996Z,13.60
2023-05-11T17:41:19.585Z,13.50
2023-05-11T17:44:41.194Z,13.50
2023-05-11T17:48:02.901Z,13.40
2023-05-11T17:51:24.484Z,13.40
2023-05-11T17:54:47.429Z,13.30
2023-05-11T17:58:09.076Z,13.10
2023-05-11T18:01:30.780Z,13.00
2023-05-11T18:04:52.383Z,12.70
2023-05-11T18:08:13.945Z,12.60
2023-05-11T18:11:36.877Z,12.40
2023-05-11T18:15:01.382Z,12.30
2023-05-11T18:18:23.191Z,12.20
2023-05-11T18:21:44.864Z,12.10
2023-05-11T18:25:08.810Z,12.00
2023-05-11T18:28:32.420Z,11.80
2023-05-11T18:31:54.065Z,11.80
2023-05-11T18:35:15.908Z,11.70
2023-05-11T18:38:37.601Z,11.70
2023-05-11T18:41:59.629Z,11.60
2023-05-11T18:45:22.699Z,11.60
2023-05-11T18:48:44.280Z,11.60
2023-05-11T18:52:06.083Z,11.50
2023-05-11T18:55:30.881Z,11.40
2023-05-11T18:58:57.199Z,11.30
2023-05-11T19:02:20.155Z,11.30
2023-05-11T19:05:41.993Z,11.20
2023-05-11T19:09:03.596Z,11.20
2023-05-11T19:12:25.212Z,11.20
2023-05-11T19:15:46.866Z,11.20
2023-05-11T19:19:10.758Z,11.10
2023-05-11T19:22:32.972Z,11.10
2023-05-11T19:25:55.819Z,11.00
2023-05-11T19:29:17.478Z,11.00
2023-05-11T19:32:42.373Z,11.10
2023-05-11T19:36:07.408Z,11.00
2023-05-11T19:39:29.011Z,11.00
2023-05-11T19:42:52.099Z,10.90
2023-05-11T19:46:13.979Z,10.90
2023-05-11T19:49:35.849Z,10.90
2023-05-11T19:52:58.907Z,10.90
2023-05-11T19:56:23.464Z,10.90
2023-05-11T19:59:45.461Z,10.90
2023-05-11T20:03:07.803Z,10.90
2023-05-11T20:06:29.604Z,10.90
2023-05-11T20:09:52.634Z,10.90
2023-05-11T20:13:14.218Z,10.90
2023-05-11T20:16:35.931Z,10.80
2023-05-11T20:19:57.546Z,10.80
2023-05-11T20:23:19.777Z,10.90
2023-05-11T20:26:42.707Z,10.90
2023-05-11T20:30:04.764Z,10.90
2023-05-11T20:36:51.078Z,10.90
2023-05-11T20:40:13.829Z,10.90
2023-05-11T20:43:37.819Z,10.90
2023-05-11T20:46:59.476Z,10.90
2023-05-11T20:50:21.213Z,10.90
2023-05-11T20:53:42.934Z,10.90
2023-05-11T20:57:04.944Z,10.90
2023-05-11T21:00:27.996Z,10.90
2023-05-11T21:03:50.502Z,10.90
2023-05-11T21:07:12.252Z,10.90
2023-05-11T21:10:33.842Z,10.90
2023-05-11T21:13:55.441Z,10.90
2023-05-11T21:17:18.596Z,10.90
2023-05-11T21:20:40.704Z,10.90
2023-05-11T21:24:02.626Z,10.80
2023-05-11T21:27:24.376Z,10.80
2023-05-11T21:30:46.118Z,10.80
2023-05-11T21:34:09.093Z,10.70
2023-05-11T21:37:30.660Z,10.70
2023-05-11T21:40:53.417Z,10.70
2023-05-11T21:44:15.127Z,10.70
2023-05-11T21:47:36.762Z,10.70
2023-05-11T21:50:59.730Z,10.70
2023-05-11T21:54:21.394Z,10.60
2023-05-11T21:57:42.983Z,10.60
2023-05-11T22:01:05.386Z,10.70
2023-05-11T22:04:26.988Z,10.70
2023-05-11T22:07:52.389Z,10.70
2023-05-11T22:11:15.670Z,10.70
2023-05-11T22:14:37.308Z,10.80
2023-05-11T22:17:58.943Z,10.80
2023-05-11T22:21:20.545Z,10.80
2023-05-11T22:24:43.495Z,10.80
2023-05-11T22:28:05.171Z,10.80
2023-05-11T22:31:26.883Z,10.80
2023-05-11T22:34:55.796Z,10.80
2023-05-11T22:38:17.394Z,10.90
2023-05-11T22:41:40.321Z,10.90
2023-05-11T22:45:03.132Z,10.90
2023-05-11T22:48:25.198Z,10.90
2023-05-11T22:51:46.766Z,10.90
2023-05-11T22:55:09.086Z,10.90
2023-05-11T22:58:32.004Z,10.90
2023-05-11T23:01:53.952Z,10.90
2023-05-11T23:05:15.531Z,10.90
2023-05-11T23:08:37.124Z,10.90
2023-05-11T23:11:58.696Z,10.90
2023-05-11T23:15:21.622Z,10.90
2023-05-11T23:18:43.925Z,10.90
2023-05-11T23:22:05.691Z,10.80
2023-05-11T23:25:35.017Z,10.80
2023-05-11T23:28:57.330Z,10.80
2023-05-11T23:32:20.374Z,10.80
2023-05-11T23:35:45.771Z,10.70
2023-05-11T23:39:15.767Z,10.70
2023-05-11T23:42:37.787Z,10.70
2023-05-11T23:45:59.486Z,10.70
2023-05-11T23:49:22.546Z,10.70
2023-05-11T23:52:45.418Z,10.70
2023-05-11T23:56:07.640Z,10.70
2023-05-11T23:59:29.994Z,10.70
